createdAt,value
2022-10-25T00:01:44.843Z,16.33
2022-10-25T00:04:12.468Z,17.10
2022-10-25T00:06:39.910Z,16.07
2022-10-25T00:09:07.383Z,16.20
2022-10-25T00:11:35.406Z,15.70
2022-10-25T00:14:05.329Z,17.27
2022-10-25T00:16:35.889Z,16.30
2022-10-25T00:19:03.255Z,16.90
2022-10-25T00:21:30.726Z,16.07
2022-10-25T00:23:58.119Z,15.80
2022-10-25T00:26:25.484Z,14.97
2022-10-25T00:28:54.795Z,15.83
2022-10-25T00:31:22.195Z,15.47
2022-10-25T00:33:49.630Z,18.87
2022-10-25T00:36:19.464Z,16.97
2022-10-25T00:38:46.821Z,22.87
2022-10-25T00:41:16.945Z,18.63
2022-10-25T00:43:48.082Z,20.23
2022-10-25T00:46:35.040Z,17.40
2022-10-25T00:49:23.679Z,16.13
2022-10-25T00:51:56.159Z,16.23
2022-10-25T00:54:26.709Z,14.60
2022-10-25T00:56:54.977Z,15.23
2022-10-25T00:59:26.461Z,15.20
2022-10-25T01:01:55.010Z,15.97
2022-10-25T01:04:27.191Z,14.77
2022-10-25T01:06:54.943Z,15.87
2022-10-25T01:09:26.829Z,16.50
2022-10-25T01:11:54.385Z,18.30
2022-10-25T01:14:21.933Z,17.03
2022-10-25T01:17:28.697Z,16.43
2022-10-25T01:20:35.434Z,14.83
2022-10-25T01:23:42.217Z,14.60
2022-10-25T01:26:48.959Z,14.80
2022-10-25T01:29:56.122Z,14.73
2022-10-25T01:33:02.903Z,15.37
2022-10-25T01:36:09.667Z,15.83
2022-10-25T01:39:16.474Z,16.33
2022-10-25T01:42:07.173Z,14.70
2022-10-25T01:45:03.334Z,14.23
2022-10-25T01:47:53.763Z,16.63
2022-10-25T01:50:27.019Z,14.73
2022-10-25T01:55:34.193Z,14.27
2022-10-25T01:58:40.915Z,15.43
2022-10-25T02:01:33.346Z,14.03
2022-10-25T02:04:19.157Z,14.97
2022-10-25T02:07:05.430Z,16.53
2022-10-25T02:10:12.109Z,14.27
2022-10-25T02:13:07.726Z,14.53
2022-10-25T02:15:52.758Z,14.07
2022-10-25T02:18:24.010Z,13.93
2022-10-25T02:20:54.247Z,13.57
2022-10-25T02:23:26.045Z,13.23
2022-10-25T02:25:54.654Z,12.43
2022-10-25T02:28:25.588Z,12.87
2022-10-25T02:30:54.110Z,13.30
2022-10-25T02:33:21.546Z,13.93
2022-10-25T02:36:28.313Z,14.53
2022-10-25T02:38:55.893Z,13.97
2022-10-25T02:41:23.280Z,14.50
2022-10-25T02:43:50.738Z,13.23
2022-10-25T02:46:20.939Z,12.90
2022-10-25T02:48:48.598Z,14.33
2022-10-25T02:51:16.062Z,14.10
2022-10-25T02:53:43.805Z,13.60
2022-10-25T02:56:13.773Z,13.83
2022-10-25T02:58:43.461Z,14.43
2022-10-25T03:01:11.220Z,13.87
2022-10-25T03:03:38.674Z,14.17
2022-10-25T03:06:06.436Z,16.67
2022-10-25T03:08:33.760Z,14.67
2022-10-25T03:11:01.151Z,14.97
2022-10-25T03:13:28.595Z,16.27
2022-10-25T03:15:55.953Z,14.83
2022-10-25T03:18:23.229Z,14.53
2022-10-25T03:20:50.870Z,14.50
2022-10-25T03:23:18.403Z,14.30
2022-10-25T03:25:46.169Z,13.67
2022-10-25T03:28:14.598Z,13.93
2022-10-25T03:30:43.330Z,13.27
2022-10-25T03:33:10.843Z,15.20
2022-10-25T03:35:38.419Z,14.30
2022-10-25T03:38:05.995Z,13.17
2022-10-25T03:40:33.611Z,14.53
2022-10-25T03:43:08.022Z,13.87
2022-10-25T03:45:35.507Z,16.02
2022-10-25T03:48:02.991Z,17.13
2022-10-25T03:50:30.587Z,15.63
2022-10-25T03:52:58.043Z,15.70
2022-10-25T03:55:25.507Z,15.10
2022-10-25T03:57:52.990Z,15.00
2022-10-25T04:00:20.623Z,15.30
2022-10-25T04:02:48.132Z,15.07
2022-10-25T04:05:15.638Z,15.93
2022-10-25T04:07:43.056Z,13.73
2022-10-25T04:10:10.582Z,15.07
2022-10-25T04:12:37.972Z,14.33
2022-10-25T04:15:05.645Z,15.37
2022-10-25T04:17:33.178Z,15.20
2022-10-25T04:20:00.653Z,15.53
2022-10-25T04:22:28.187Z,15.53
2022-10-25T04:24:55.827Z,15.77
2022-10-25T04:27:23.282Z,16.27
2022-10-25T04:29:50.721Z,14.80
2022-10-25T04:34:50.587Z,17.00
2022-10-25T04:37:17.971Z,21.17
2022-10-25T04:39:45.659Z,18.93
2022-10-25T04:42:12.997Z,16.80
2022-10-25T04:44:40.413Z,18.63
2022-10-25T04:47:07.768Z,18.10
2022-10-25T04:49:35.184Z,18.60
2022-10-25T04:52:02.658Z,19.23
2022-10-25T04:54:29.957Z,19.33
2022-10-25T04:56:57.420Z,18.70
2022-10-25T04:59:24.948Z,17.80
2022-10-25T05:04:19.580Z,17.43
2022-10-25T05:06:46.959Z,18.27
2022-10-25T05:09:14.262Z,24.07
2022-10-25T05:11:41.451Z,23.00
2022-10-25T05:14:08.542Z,23.97
2022-10-25T05:16:35.848Z,23.40
2022-10-25T05:19:03.241Z,72.70
2022-10-25T05:21:31.322Z,140.33
2022-10-25T05:24:01.978Z,309.90
2022-10-25T05:26:30.350Z,171.57
2022-10-25T05:28:57.719Z,25.93
2022-10-25T05:31:26.967Z,21.70
2022-10-25T05:33:56.587Z,20.17
2022-10-25T05:36:24.532Z,23.93
2022-10-25T05:38:52.146Z,19.93
2022-10-25T05:41:19.760Z,17.07
2022-10-25T05:43:47.194Z,18.60
2022-10-25T05:46:18.659Z,17.27
2022-10-25T05:48:48.983Z,24.03
2022-10-25T05:51:37.071Z,18.43
2022-10-25T05:54:07.116Z,16.70
2022-10-25T05:56:35.591Z,16.00
2022-10-25T05:59:08.978Z,16.43
2022-10-25T06:01:38.332Z,16.10
2022-10-25T06:04:05.878Z,18.67
2022-10-25T06:06:33.290Z,15.87
2022-10-25T06:09:01.594Z,15.93
2022-10-25T06:11:29.741Z,17.57
2022-10-25T06:13:57.146Z,18.33
2022-10-25T06:16:24.748Z,16.60
2022-10-25T06:18:52.137Z,18.50
2022-10-25T06:21:23.000Z,16.43
2022-10-25T06:23:50.794Z,19.60
2022-10-25T06:26:22.001Z,18.67
2022-10-25T06:28:49.428Z,19.20
2022-10-25T06:31:19.101Z,19.03
2022-10-25T06:33:46.762Z,22.07
2022-10-25T06:36:17.004Z,24.83
2022-10-25T06:38:45.352Z,31.33
2022-10-25T06:41:16.091Z,20.70
2022-10-25T06:43:43.728Z,19.67
2022-10-25T06:47:16.477Z,18.93
2022-10-25T06:49:47.512Z,23.03
2022-10-25T06:52:14.907Z,25.83
2022-10-25T06:54:42.252Z,25.93
2022-10-25T06:57:09.632Z,19.67
2022-10-25T06:59:36.978Z,17.47
2022-10-25T07:02:04.545Z,18.50
2022-10-25T07:04:32.775Z,16.43
2022-10-25T07:07:00.365Z,17.17
2022-10-25T07:09:27.758Z,15.80
2022-10-25T07:11:55.170Z,14.33
2022-10-25T07:14:22.885Z,15.30
2022-10-25T07:16:50.218Z,12.50
2022-10-25T07:19:17.691Z,12.90
2022-10-25T07:21:45.429Z,11.97
2022-10-25T07:24:12.953Z,13.00
2022-10-25T07:26:40.553Z,13.70
2022-10-25T07:29:07.969Z,15.57
2022-10-25T07:31:37.947Z,13.63
2022-10-25T07:34:05.910Z,11.00
2022-10-25T07:36:33.447Z,10.60
2022-10-25T07:39:01.051Z,9.23
2022-10-25T07:41:28.416Z,10.47
2022-10-25T07:43:55.665Z,9.63
2022-10-25T07:46:23.200Z,9.43
2022-10-25T07:48:52.619Z,9.70
2022-10-25T07:51:20.392Z,9.20
2022-10-25T07:53:47.853Z,8.57
2022-10-25T07:56:20.388Z,9.47
2022-10-25T07:58:50.702Z,9.03
2022-10-25T08:01:22.141Z,7.93
2022-10-25T08:03:49.914Z,8.20
2022-10-25T08:06:17.252Z,8.17
2022-10-25T08:08:44.881Z,8.23
2022-10-25T08:11:12.245Z,8.40
2022-10-25T08:13:40.149Z,8.40
2022-10-25T08:16:07.848Z,8.53
2022-10-25T08:18:35.803Z,8.40
2022-10-25T08:21:03.975Z,8.33
2022-10-25T08:23:32.154Z,7.40
2022-10-25T08:26:00.385Z,7.87
2022-10-25T08:28:27.600Z,7.50
2022-10-25T08:30:55.763Z,8.77
2022-10-25T08:33:24.205Z,7.87
2022-10-25T08:35:51.611Z,7.27
2022-10-25T08:38:19.068Z,7.47
2022-10-25T08:41:25.797Z,7.20
2022-10-25T08:44:19.679Z,6.17
2022-10-25T08:47:17.079Z,6.97
2022-10-25T08:50:12.690Z,6.03
2022-10-25T08:52:45.984Z,6.28
2022-10-25T08:55:20.142Z,7.13
2022-10-25T08:57:50.000Z,43.93
2022-10-25T09:00:21.598Z,6.90
2022-10-25T09:02:58.016Z,6.53
2022-10-25T09:06:04.740Z,6.13
2022-10-25T09:09:05.912Z,7.23
2022-10-25T09:12:08.021Z,6.07
2022-10-25T09:15:03.539Z,6.83
2022-10-25T09:17:45.240Z,6.93
2022-10-25T09:20:36.132Z,6.47
2022-10-25T09:23:18.339Z,6.57
2022-10-25T09:26:25.199Z,6.80
2022-10-25T09:29:32.678Z,6.33
2022-10-25T09:32:02.280Z,5.93
2022-10-25T09:34:33.737Z,5.87
2022-10-25T09:37:24.757Z,6.70
2022-10-25T09:39:56.493Z,6.03
2022-10-25T09:42:32.698Z,6.47
2022-10-25T09:45:07.407Z,5.87
2022-10-25T09:48:14.132Z,5.47
2022-10-25T09:50:49.445Z,6.20
2022-10-25T09:53:21.674Z,7.70
2022-10-25T09:56:00.343Z,5.40
2022-10-25T09:58:39.055Z,6.50
2022-10-25T10:01:14.967Z,5.10
2022-10-25T10:03:44.581Z,5.53
2022-10-25T10:06:36.540Z,5.57
2022-10-25T10:09:07.052Z,5.20
2022-10-25T10:11:36.020Z,5.10
2022-10-25T10:14:27.805Z,5.30
2022-10-25T10:16:58.022Z,5.57
2022-10-25T10:19:29.616Z,5.93
2022-10-25T10:22:00.554Z,4.90
2022-10-25T10:24:38.804Z,5.30
2022-10-25T10:27:28.381Z,5.60
2022-10-25T10:30:24.190Z,4.83
2022-10-25T10:32:57.342Z,5.63
2022-10-25T10:35:30.031Z,5.60
2022-10-25T10:38:37.271Z,5.43
2022-10-25T10:41:26.285Z,4.80
2022-10-25T10:44:10.936Z,5.60
2022-10-25T10:46:46.553Z,5.38
2022-10-25T10:49:14.965Z,4.70
2022-10-25T10:51:45.292Z,4.23
2022-10-25T10:54:34.934Z,3.77
2022-10-25T10:57:04.756Z,4.40
2022-10-25T10:59:46.250Z,4.17
2022-10-25T11:02:53.713Z,4.13
2022-10-25T11:05:38.394Z,3.77
2022-10-25T11:08:25.277Z,5.17
2022-10-25T11:10:52.745Z,5.20
2022-10-25T11:13:21.138Z,4.50
2022-10-25T11:16:28.175Z,4.17
2022-10-25T11:19:22.319Z,4.47
2022-10-25T11:22:32.188Z,4.47
2022-10-25T11:25:39.879Z,3.93
2022-10-25T11:28:34.401Z,4.10
2022-10-25T11:31:31.204Z,3.97
2022-10-25T11:34:34.660Z,3.70
2022-10-25T11:37:41.570Z,4.13
2022-10-25T11:40:34.573Z,4.43
2022-10-25T11:43:41.383Z,5.53
2022-10-25T11:46:48.121Z,4.70
2022-10-25T11:49:33.728Z,4.90
2022-10-25T11:55:27.430Z,4.20
2022-10-25T11:58:34.734Z,4.67
2022-10-25T12:01:30.169Z,5.03
2022-10-25T12:04:38.011Z,4.55
2022-10-25T12:07:31.689Z,4.90
2022-10-25T12:10:26.935Z,4.43
2022-10-25T12:13:00.071Z,4.82
2022-10-25T12:15:41.722Z,4.40
2022-10-25T12:18:19.170Z,4.97
2022-10-25T12:20:50.241Z,4.77
2022-10-25T12:23:21.395Z,4.30
2022-10-25T12:25:52.551Z,4.73
2022-10-25T12:28:47.846Z,4.00
2022-10-25T12:31:20.722Z,3.78
2022-10-25T12:34:27.533Z,4.03
2022-10-25T12:36:57.573Z,4.97
2022-10-25T12:39:39.206Z,4.17
2022-10-25T12:42:20.496Z,4.47
2022-10-25T12:45:19.406Z,4.20
2022-10-25T12:47:59.097Z,4.00
2022-10-25T12:51:05.920Z,5.00
2022-10-25T12:54:12.869Z,4.00
2022-10-25T12:57:04.962Z,4.80
2022-10-25T12:59:58.386Z,4.40
2022-10-25T13:02:53.282Z,5.97
2022-10-25T13:06:00.108Z,4.47
2022-10-25T13:08:29.722Z,5.00
2022-10-25T13:11:00.969Z,3.50
2022-10-25T13:13:34.042Z,3.77
2022-10-25T13:16:04.696Z,3.93
2022-10-25T13:18:49.078Z,4.23
2022-10-25T13:21:17.766Z,4.03
2022-10-25T13:24:04.873Z,4.00
2022-10-25T13:26:33.775Z,3.70
2022-10-25T13:29:23.023Z,3.70
2022-10-25T13:32:07.501Z,4.53
2022-10-25T13:34:37.602Z,5.67
2022-10-25T13:37:10.205Z,5.40
2022-10-25T13:39:43.642Z,5.50
2022-10-25T13:42:50.691Z,4.90
2022-10-25T13:45:35.691Z,4.70
2022-10-25T13:48:19.640Z,4.03
2022-10-25T13:50:55.795Z,4.00
2022-10-25T13:53:45.105Z,4.47
2022-10-25T13:56:35.022Z,4.20
2022-10-25T13:59:02.673Z,4.50
2022-10-25T14:01:51.776Z,4.53
2022-10-25T14:04:25.132Z,5.53
2022-10-25T14:06:52.757Z,4.70
2022-10-25T14:09:40.212Z,5.00
2022-10-25T14:12:16.781Z,5.50
2022-10-25T14:15:14.886Z,4.63
2022-10-25T14:17:44.475Z,5.88
2022-10-25T14:20:42.191Z,6.00
2022-10-25T14:23:17.300Z,5.73
2022-10-25T14:28:43.597Z,5.60
2022-10-25T14:31:19.985Z,5.00
2022-10-25T14:34:18.551Z,6.60
2022-10-25T14:36:50.208Z,6.40
2022-10-25T14:39:20.191Z,4.70
2022-10-25T14:42:16.570Z,5.57
2022-10-25T14:44:48.116Z,6.17
2022-10-25T14:47:33.009Z,5.80
2022-10-25T14:50:02.442Z,5.82
2022-10-25T14:52:31.756Z,6.00
2022-10-25T14:55:03.073Z,4.93
2022-10-25T14:57:33.211Z,5.57
2022-10-25T15:00:04.404Z,4.70
2022-10-25T15:02:35.764Z,4.27
2022-10-25T15:05:04.122Z,5.07
2022-10-25T15:07:35.599Z,5.60
2022-10-25T15:12:32.968Z,5.30
2022-10-25T15:15:42.553Z,5.23
2022-10-25T15:18:32.120Z,6.20
2022-10-25T15:21:17.914Z,6.23
2022-10-25T15:24:12.313Z,6.03
2022-10-25T15:26:39.884Z,6.23
2022-10-25T15:29:07.432Z,6.63
2022-10-25T15:31:34.971Z,7.13
2022-10-25T15:34:04.145Z,5.97
2022-10-25T15:36:33.778Z,6.10
2022-10-25T15:39:10.525Z,5.60
2022-10-25T15:41:39.105Z,6.50
2022-10-25T15:44:06.515Z,6.20
2022-10-25T15:46:38.404Z,7.40
2022-10-25T15:49:08.653Z,7.27
2022-10-25T15:51:40.597Z,8.50
2022-10-25T15:54:25.002Z,8.50
2022-10-25T15:56:52.678Z,9.27
2022-10-25T15:59:20.127Z,8.03
2022-10-25T16:01:51.848Z,6.93
2022-10-25T16:04:20.112Z,8.93
2022-10-25T16:06:48.013Z,7.70
2022-10-25T16:09:15.486Z,7.50
2022-10-25T16:11:47.154Z,8.93
2022-10-25T16:14:26.070Z,8.50
2022-10-25T16:16:53.522Z,9.70
2022-10-25T16:19:22.062Z,9.93
2022-10-25T16:21:49.710Z,9.73
2022-10-25T16:24:17.215Z,13.17
2022-10-25T16:26:50.266Z,20.13
2022-10-25T16:29:19.737Z,45.23
2022-10-25T16:31:47.334Z,25.13
2022-10-25T16:34:17.481Z,12.33
2022-10-25T16:36:45.183Z,11.53
2022-10-25T16:39:12.937Z,21.30
2022-10-25T16:41:42.505Z,23.13
2022-10-25T16:44:13.801Z,40.00
2022-10-25T16:46:41.490Z,25.67
2022-10-25T16:49:11.775Z,36.10
2022-10-25T16:51:40.054Z,36.73
2022-10-25T16:54:07.615Z,32.47
2022-10-25T16:56:35.768Z,22.93
2022-10-25T16:59:03.265Z,18.73
2022-10-25T17:01:34.550Z,25.23
2022-10-25T17:04:03.812Z,20.17
2022-10-25T17:06:46.727Z,30.00
2022-10-25T17:09:14.347Z,23.67
2022-10-25T17:11:41.785Z,16.70
2022-10-25T17:14:10.548Z,24.90
2022-10-25T17:16:40.910Z,18.73
2022-10-25T17:19:10.198Z,17.27
2022-10-25T17:21:39.137Z,14.50
2022-10-25T17:24:08.637Z,17.00
2022-10-25T17:26:36.745Z,14.00
2022-10-25T17:29:04.265Z,15.93
2022-10-25T17:31:32.812Z,13.53
2022-10-25T17:34:01.103Z,12.90
2022-10-25T17:36:31.430Z,14.23
2022-10-25T17:38:59.443Z,14.23
2022-10-25T17:41:26.850Z,13.77
2022-10-25T17:43:56.783Z,15.37
2022-10-25T17:46:27.741Z,16.00
2022-10-25T17:48:56.589Z,17.17
2022-10-25T17:51:24.437Z,16.00
2022-10-25T17:53:54.537Z,13.27
2022-10-25T17:56:23.946Z,13.07
2022-10-25T17:58:51.587Z,14.13
2022-10-25T18:01:23.128Z,16.93
2022-10-25T18:03:50.590Z,16.60
2022-10-25T18:06:20.144Z,16.30
2022-10-25T18:08:51.998Z,15.80
2022-10-25T18:11:22.483Z,16.90
2022-10-25T18:13:50.805Z,19.80
2022-10-25T18:16:18.395Z,15.10
2022-10-25T18:18:45.875Z,16.10
2022-10-25T18:21:15.188Z,15.83
2022-10-25T18:23:42.833Z,15.30
2022-10-25T18:26:12.021Z,15.90
2022-10-25T18:28:39.537Z,15.50
2022-10-25T18:31:09.289Z,14.73
2022-10-25T18:33:38.883Z,15.97
2022-10-25T18:36:10.569Z,15.13
2022-10-25T18:38:38.072Z,15.80
2022-10-25T18:41:11.486Z,17.17
2022-10-25T18:43:38.908Z,18.40
2022-10-25T18:46:06.324Z,14.60
2022-10-25T18:48:33.649Z,14.67
2022-10-25T18:51:06.168Z,15.20
2022-10-25T18:53:35.586Z,13.87
2022-10-25T18:56:03.208Z,15.07
2022-10-25T18:58:31.910Z,13.10
2022-10-25T19:01:08.691Z,13.27
2022-10-25T19:03:36.630Z,11.30
2022-10-25T19:06:04.683Z,12.07
2022-10-25T19:08:32.120Z,12.03
2022-10-25T19:11:03.725Z,11.23
2022-10-25T19:13:31.116Z,11.27
2022-10-25T19:15:58.981Z,10.43
2022-10-25T19:18:28.176Z,10.27
2022-10-25T19:20:55.679Z,10.20
2022-10-25T19:23:23.042Z,10.47
2022-10-25T19:25:50.339Z,10.27
2022-10-25T19:28:17.692Z,10.57
2022-10-25T19:30:45.122Z,11.13
2022-10-25T19:33:12.528Z,9.13
2022-10-25T19:35:39.854Z,9.60
2022-10-25T19:38:07.453Z,8.70
2022-10-25T19:40:34.801Z,10.03
2022-10-25T19:43:02.274Z,8.90
2022-10-25T19:45:29.708Z,10.77
2022-10-25T19:47:59.074Z,9.13
2022-10-25T19:50:26.361Z,10.10
2022-10-25T19:52:53.619Z,10.50
2022-10-25T19:55:21.235Z,9.37
2022-10-25T19:57:48.844Z,8.73
2022-10-25T20:00:16.596Z,8.87
2022-10-25T20:02:44.037Z,9.23
2022-10-25T20:07:43.704Z,8.20
2022-10-25T20:10:11.386Z,9.03
2022-10-25T20:12:41.005Z,10.20
2022-10-25T20:15:08.769Z,9.23
2022-10-25T20:17:36.262Z,9.77
2022-10-25T20:20:03.757Z,10.37
2022-10-25T20:22:32.235Z,13.77
2022-10-25T20:24:59.671Z,31.93
2022-10-25T20:27:27.478Z,17.60
2022-10-25T20:29:54.902Z,10.30
2022-10-25T20:32:22.524Z,11.50
2022-10-25T20:34:49.930Z,10.63
2022-10-25T20:37:17.467Z,9.73
2022-10-25T20:39:44.862Z,9.93
2022-10-25T20:42:12.234Z,9.63
2022-10-25T20:44:39.651Z,10.37
2022-10-25T20:47:06.979Z,12.37
2022-10-25T20:49:34.587Z,9.23
2022-10-25T20:52:02.049Z,9.77
2022-10-25T20:54:29.387Z,9.23
2022-10-25T20:56:57.109Z,7.60
2022-10-25T20:59:24.171Z,9.67
2022-10-25T21:01:51.580Z,10.13
2022-10-25T21:04:25.993Z,9.70
2022-10-25T21:07:06.321Z,9.03
2022-10-25T21:09:33.708Z,9.17
2022-10-25T21:12:01.045Z,9.93
2022-10-25T21:14:28.540Z,9.37
2022-10-25T21:16:55.981Z,7.53
2022-10-25T21:19:23.381Z,8.93
2022-10-25T21:21:50.433Z,8.13
2022-10-25T21:24:17.917Z,7.93
2022-10-25T21:26:45.181Z,8.27
2022-10-25T21:29:12.514Z,7.27
2022-10-25T21:31:39.965Z,8.57
2022-10-25T21:34:07.405Z,7.47
2022-10-25T21:36:34.775Z,7.20
2022-10-25T21:39:02.115Z,6.97
2022-10-25T21:41:30.121Z,7.03
2022-10-25T21:43:58.141Z,7.10
2022-10-25T21:46:27.575Z,6.83
2022-10-25T21:48:55.283Z,8.13
2022-10-25T21:51:24.636Z,7.60
2022-10-25T21:56:23.350Z,7.53
2022-10-25T21:58:51.000Z,6.97
2022-10-25T22:01:21.121Z,7.40
2022-10-25T22:03:48.306Z,7.23
2022-10-25T22:06:18.676Z,7.00
2022-10-25T22:08:46.572Z,6.77
2022-10-25T22:11:17.945Z,7.27
2022-10-25T22:13:45.685Z,6.73
2022-10-25T22:16:18.444Z,7.50
2022-10-25T22:18:50.974Z,8.00
2022-10-25T22:21:18.556Z,8.57
2022-10-25T22:23:45.618Z,7.10
2022-10-25T22:26:14.675Z,7.50
2022-10-25T22:28:42.099Z,8.23
2022-10-25T22:31:17.525Z,7.23
2022-10-25T22:33:45.271Z,7.33
2022-10-25T22:36:18.193Z,7.53
2022-10-25T22:38:46.277Z,6.90
2022-10-25T22:41:15.319Z,6.67
2022-10-25T22:43:42.820Z,8.10
2022-10-25T22:46:14.832Z,8.00
2022-10-25T22:48:43.326Z,7.87
2022-10-25T22:51:11.784Z,7.23
2022-10-25T22:53:39.767Z,6.70
2022-10-25T22:56:27.657Z,6.37
2022-10-25T22:58:57.415Z,7.60
2022-10-25T23:01:26.677Z,6.93
2022-10-25T23:03:55.723Z,6.90
2022-10-25T23:06:26.123Z,7.20
2022-10-25T23:08:58.211Z,6.40
2022-10-25T23:11:27.829Z,8.37
2022-10-25T23:13:55.176Z,6.70
2022-10-25T23:16:22.449Z,6.50
2022-10-25T23:18:49.788Z,7.10
2022-10-25T23:21:18.992Z,8.10
2022-10-25T23:23:46.676Z,7.27
2022-10-25T23:26:19.967Z,7.70
2022-10-25T23:28:47.434Z,7.83
2022-10-25T23:31:15.135Z,7.47
2022-10-25T23:33:42.492Z,7.43
2022-10-25T23:36:13.772Z,7.93
2022-10-25T23:38:41.064Z,6.73
2022-10-25T23:41:08.615Z,7.53
2022-10-25T23:43:36.156Z,6.97
2022-10-25T23:46:03.576Z,7.07
2022-10-25T23:48:31.209Z,7.37
2022-10-25T23:51:03.836Z,7.57
2022-10-25T23:53:31.293Z,8.23
2022-10-25T23:55:59.014Z,8.47
2022-10-25T23:58:26.382Z,9.53
